createdAt,value
2022-07-31T00:00:50.640Z,99255.34
2022-07-31T00:03:20.714Z,99250.75
2022-07-31T00:05:48.830Z,99254.50
2022-07-31T00:08:17.162Z,99253.44
2022-07-31T00:10:46.448Z,99252.06
2022-07-31T00:13:15.035Z,99253.41
2022-07-31T00:15:43.450Z,99249.72
2022-07-31T00:18:11.886Z,99252.91
2022-07-31T00:20:41.745Z,99249.19
2022-07-31T00:23:10.953Z,99255.63
2022-07-31T00:25:39.896Z,99255.88
2022-07-31T00:28:08.982Z,99260.06
2022-07-31T00:30:36.994Z,99249.19
2022-07-31T00:33:05.525Z,99247.81
2022-07-31T00:35:33.914Z,99243.19
2022-07-31T00:40:51.885Z,99237.91
2022-07-31T00:43:20.045Z,99233.88
2022-07-31T00:45:58.684Z,99229.75
2022-07-31T00:48:28.286Z,99229.53
2022-07-31T00:50:58.423Z,99225.63
2022-07-31T00:53:27.983Z,99226.47
2022-07-31T00:55:57.606Z,99221.47
2022-07-31T00:58:26.635Z,99220.41
2022-07-31T01:00:55.163Z,99227.28
2022-07-31T01:03:23.576Z,99224.97
2022-07-31T01:05:51.855Z,99223.19
2022-07-31T01:08:20.160Z,99228.88
2022-07-31T01:10:57.501Z,99227.50
2022-07-31T01:13:34.232Z,99217.81
2022-07-31T01:16:04.670Z,99218.72
2022-07-31T01:18:36.148Z,99216.88
2022-07-31T01:21:06.958Z,99216.19
2022-07-31T01:23:59.790Z,99217.34
2022-07-31T01:26:40.053Z,99217.59
2022-07-31T01:29:17.434Z,99220.81
2022-07-31T01:31:49.729Z,99215.97
2022-07-31T01:34:25.902Z,99214.59
2022-07-31T01:37:00.755Z,99210.16
2022-07-31T01:39:34.250Z,99213.53
2022-07-31T01:42:06.441Z,99214.59
2022-07-31T01:44:42.990Z,99217.88
2022-07-31T01:47:15.116Z,99214.41
2022-07-31T01:49:45.366Z,99213.28
2022-07-31T01:52:15.414Z,99211.28
2022-07-31T01:54:45.145Z,99202.91
2022-07-31T01:57:18.543Z,99208.97
2022-07-31T01:59:54.764Z,99205.56
2022-07-31T02:02:24.249Z,99207.72
2022-07-31T02:04:53.037Z,99209.19
2022-07-31T02:07:22.742Z,99202.25
2022-07-31T02:09:58.993Z,99199.03
2022-07-31T02:12:32.151Z,99197.03
2022-07-31T02:15:04.262Z,99197.34
2022-07-31T02:17:33.188Z,99195.97
2022-07-31T02:20:03.709Z,99194.47
2022-07-31T02:22:31.977Z,99192.91
2022-07-31T02:25:00.297Z,99192.53
2022-07-31T02:27:53.697Z,99195.47
2022-07-31T02:30:20.310Z,99192.34
2022-07-31T02:32:50.307Z,99199.31
2022-07-31T02:35:20.173Z,99204.44
2022-07-31T02:37:52.152Z,99204.28
2022-07-31T02:40:21.450Z,99205.09
2022-07-31T02:42:50.323Z,99204.38
2022-07-31T02:45:22.697Z,99201.84
2022-07-31T02:47:51.034Z,99202.13
2022-07-31T02:50:20.347Z,99204.81
2022-07-31T02:52:49.240Z,99202.13
2022-07-31T02:55:18.972Z,99199.31
2022-07-31T02:57:48.495Z,99201.03
2022-07-31T03:00:24.142Z,99201.47
2022-07-31T03:02:52.325Z,99202.03
2022-07-31T03:05:20.626Z,99208.09
2022-07-31T03:07:50.434Z,99207.16
2022-07-31T03:10:18.957Z,99207.00
2022-07-31T03:12:51.737Z,99207.28
2022-07-31T03:15:23.945Z,99200.78
2022-07-31T03:17:53.614Z,99195.41
2022-07-31T03:20:22.770Z,99196.13
2022-07-31T03:22:51.851Z,99198.25
2022-07-31T03:25:21.816Z,99195.72
2022-07-31T03:27:56.433Z,99191.91
2022-07-31T03:30:27.208Z,99183.88
2022-07-31T03:32:56.165Z,99193.59
2022-07-31T03:35:24.803Z,99199.91
2022-07-31T03:37:53.329Z,99198.59
2022-07-31T03:40:21.433Z,99204.94
2022-07-31T03:42:51.554Z,99204.56
2022-07-31T03:45:20.801Z,99211.59
2022-07-31T03:47:50.912Z,99210.75
2022-07-31T03:50:19.807Z,99212.56
2022-07-31T03:52:49.080Z,99216.91
2022-07-31T03:55:17.642Z,99222.66
2022-07-31T03:57:47.628Z,99226.66
2022-07-31T04:00:20.587Z,99217.19
2022-07-31T04:02:50.312Z,99214.84
2022-07-31T04:05:18.619Z,99215.53
2022-07-31T04:07:47.091Z,99216.13
2022-07-31T04:10:15.371Z,99220.91
2022-07-31T04:12:43.672Z,99218.97
2022-07-31T04:15:12.138Z,99217.56
2022-07-31T04:17:40.502Z,99217.69
2022-07-31T04:20:12.976Z,99217.56
2022-07-31T04:22:41.482Z,99222.06
2022-07-31T04:25:10.846Z,99220.09
2022-07-31T04:27:48.470Z,99219.13
2022-07-31T04:30:17.286Z,99229.41
2022-07-31T04:32:45.462Z,99222.06
2022-07-31T04:35:15.236Z,99215.16
2022-07-31T04:37:48.449Z,99219.25
2022-07-31T04:40:17.327Z,99220.81
2022-07-31T04:42:45.400Z,99216.72
2022-07-31T04:45:13.625Z,99218.16
2022-07-31T04:47:41.813Z,99220.38
2022-07-31T04:50:10.748Z,99205.97
2022-07-31T04:52:40.666Z,99211.91
2022-07-31T04:55:09.853Z,99211.91
2022-07-31T04:57:38.514Z,99215.13
2022-07-31T05:00:08.618Z,99220.19
2022-07-31T05:02:36.915Z,99219.00
2022-07-31T05:05:05.616Z,99221.97
2022-07-31T05:07:34.850Z,99225.09
2022-07-31T05:10:05.178Z,99222.63
2022-07-31T05:12:33.718Z,99214.72
2022-07-31T05:15:01.993Z,99221.84
2022-07-31T05:17:30.171Z,99217.91
2022-07-31T05:19:58.451Z,99213.69
2022-07-31T05:22:26.892Z,99214.88
2022-07-31T05:24:55.163Z,99214.28
2022-07-31T05:27:24.907Z,99214.97
2022-07-31T05:29:57.665Z,99215.34
2022-07-31T05:32:26.068Z,99218.75
2022-07-31T05:34:54.157Z,99214.44
2022-07-31T05:37:22.537Z,99212.44
2022-07-31T05:39:50.640Z,99213.41
2022-07-31T05:42:18.709Z,99213.34
2022-07-31T05:44:48.828Z,99213.09
2022-07-31T05:47:18.334Z,99210.03
2022-07-31T05:49:46.530Z,99211.94
2022-07-31T05:52:14.598Z,99210.72
2022-07-31T05:54:42.706Z,99217.84
2022-07-31T05:57:11.257Z,99208.78
2022-07-31T05:59:39.725Z,99218.09
2022-07-31T06:02:09.409Z,99219.78
2022-07-31T06:04:37.508Z,99219.59
2022-07-31T06:07:05.631Z,99216.50
2022-07-31T06:09:34.388Z,99220.81
2022-07-31T06:12:02.684Z,99214.38
2022-07-31T06:14:31.121Z,99226.59
2022-07-31T06:16:59.558Z,99219.44
2022-07-31T06:19:30.442Z,99214.59
2022-07-31T06:21:58.700Z,99223.03
2022-07-31T06:24:27.013Z,99223.72
2022-07-31T06:26:58.624Z,99221.44
2022-07-31T06:29:41.155Z,99219.25
2022-07-31T06:32:10.968Z,99211.38
2022-07-31T06:34:41.264Z,99216.81
2022-07-31T06:37:09.886Z,99219.97
2022-07-31T06:39:54.605Z,99222.72
2022-07-31T06:42:25.961Z,99219.41
2022-07-31T06:44:54.922Z,99227.84
2022-07-31T06:47:24.912Z,99219.75
2022-07-31T06:49:55.701Z,99224.34
2022-07-31T06:52:24.321Z,99230.75
2022-07-31T06:54:52.406Z,99217.22
2022-07-31T06:57:20.709Z,99222.06
2022-07-31T06:59:49.067Z,99215.78
2022-07-31T07:02:17.195Z,99210.19
2022-07-31T07:05:06.201Z,99217.00
2022-07-31T07:07:36.893Z,99212.69
2022-07-31T07:10:06.647Z,99213.16
2022-07-31T07:12:34.755Z,99207.69
2022-07-31T07:15:02.988Z,99209.44
2022-07-31T07:17:31.393Z,99206.88
2022-07-31T07:19:59.468Z,99212.06
2022-07-31T07:22:31.141Z,99205.44
2022-07-31T07:25:02.172Z,99203.72
2022-07-31T07:27:30.341Z,99199.25
2022-07-31T07:29:58.704Z,99204.50
2022-07-31T07:32:27.174Z,99201.13
2022-07-31T07:34:59.813Z,99194.66
2022-07-31T07:37:29.126Z,99186.72
2022-07-31T07:39:57.613Z,99191.13
2022-07-31T07:42:33.679Z,99195.69
2022-07-31T07:45:02.259Z,99189.94
2022-07-31T07:48:02.808Z,99188.75
2022-07-31T07:50:27.080Z,99185.91
2022-07-31T07:52:58.029Z,99185.41
2022-07-31T07:55:26.397Z,99182.69
2022-07-31T07:57:56.396Z,99185.25
2022-07-31T08:00:24.999Z,99182.19
2022-07-31T08:03:47.617Z,99182.38
2022-07-31T08:05:42.576Z,99169.03
2022-07-31T08:08:12.369Z,99177.47
2022-07-31T08:10:41.414Z,99172.25
2022-07-31T08:13:11.327Z,99170.34
2022-07-31T08:15:39.535Z,99170.63
2022-07-31T08:18:08.105Z,99171.63
2022-07-31T08:20:38.448Z,99174.56
2022-07-31T08:23:06.933Z,99177.09
2022-07-31T08:25:35.065Z,99171.25
2022-07-31T08:28:03.062Z,99173.88
2022-07-31T08:30:35.868Z,99168.28
2022-07-31T08:33:04.214Z,99161.69
2022-07-31T08:35:32.913Z,99165.25
2022-07-31T08:38:04.264Z,99167.19
2022-07-31T08:40:35.918Z,99167.13
2022-07-31T08:43:31.023Z,99172.19
2022-07-31T08:46:03.853Z,99164.16
2022-07-31T08:48:34.517Z,99169.13
2022-07-31T08:51:04.867Z,99167.28
2022-07-31T08:53:37.372Z,99167.56
2022-07-31T08:56:07.334Z,99159.44
2022-07-31T08:58:39.368Z,99160.84
2022-07-31T09:01:12.631Z,99164.97
2022-07-31T09:03:40.833Z,99159.88
2022-07-31T09:06:12.525Z,99157.66
2022-07-31T09:08:41.547Z,99154.47
2022-07-31T09:11:13.661Z,99150.84
2022-07-31T09:13:42.698Z,99145.13
2022-07-31T09:16:47.091Z,99139.38
2022-07-31T09:19:52.218Z,99136.53
2022-07-31T09:22:08.438Z,99128.13
2022-07-31T09:24:39.623Z,99129.75
2022-07-31T09:27:11.404Z,99122.41
2022-07-31T09:29:41.481Z,99119.34
2022-07-31T09:32:12.796Z,99110.63
2022-07-31T09:34:41.628Z,99111.06
2022-07-31T09:37:13.226Z,99102.75
2022-07-31T09:39:51.930Z,99112.75
2022-07-31T09:42:21.956Z,99103.63
2022-07-31T09:44:52.288Z,99105.19
2022-07-31T09:47:27.103Z,99102.56
2022-07-31T09:49:58.470Z,99102.22
2022-07-31T09:52:28.265Z,99099.69
2022-07-31T09:55:16.212Z,99098.25
2022-07-31T09:57:54.519Z,99099.91
2022-07-31T10:00:23.813Z,99090.75
2022-07-31T10:02:56.135Z,99099.81
2022-07-31T10:05:28.682Z,99092.13
2022-07-31T10:08:00.349Z,99084.81
2022-07-31T10:10:31.430Z,99086.84
2022-07-31T10:13:03.168Z,99082.25
2022-07-31T10:15:34.747Z,99088.19
2022-07-31T10:18:06.098Z,99090.72
2022-07-31T10:20:35.743Z,99087.53
2022-07-31T10:23:10.433Z,99100.41
2022-07-31T10:25:53.840Z,99092.78
2022-07-31T10:28:23.368Z,99088.25
2022-07-31T10:30:52.191Z,99085.16
2022-07-31T10:33:43.097Z,99078.63
2022-07-31T10:36:17.996Z,99072.75
2022-07-31T10:38:53.246Z,99071.38
2022-07-31T10:41:33.493Z,99066.91
2022-07-31T10:44:07.186Z,99079.13
2022-07-31T10:46:35.889Z,99072.00
2022-07-31T10:49:08.230Z,99068.63
2022-07-31T10:51:48.060Z,99054.50
2022-07-31T10:54:16.223Z,99054.41
2022-07-31T10:56:47.690Z,99050.97
2022-07-31T10:59:16.156Z,99040.28
2022-07-31T11:01:52.585Z,99046.63
2022-07-31T11:04:30.804Z,99043.63
2022-07-31T11:06:59.218Z,99045.41
2022-07-31T11:09:29.743Z,99042.56
2022-07-31T11:11:58.576Z,99033.97
2022-07-31T11:14:34.073Z,99033.38
2022-07-31T11:17:03.044Z,99026.19
2022-07-31T11:19:41.637Z,99024.09
2022-07-31T11:22:32.194Z,99030.81
2022-07-31T11:25:01.251Z,99029.72
2022-07-31T11:27:33.227Z,99038.53
2022-07-31T11:30:12.593Z,99024.94
2022-07-31T11:32:42.052Z,99033.84
2022-07-31T11:35:12.491Z,99032.25
2022-07-31T11:37:56.961Z,99023.03
2022-07-31T11:40:28.378Z,99023.47
2022-07-31T11:45:49.790Z,99021.56
2022-07-31T11:48:19.184Z,99027.63
2022-07-31T11:50:50.571Z,99023.19
2022-07-31T11:53:19.922Z,99013.81
2022-07-31T11:55:50.069Z,99010.91
2022-07-31T11:58:19.647Z,99006.34
2022-07-31T12:00:53.110Z,99009.78
2022-07-31T12:03:25.078Z,99000.03
2022-07-31T12:05:55.433Z,98979.66
2022-07-31T12:08:25.139Z,98975.38
2022-07-31T12:10:54.310Z,98979.88
2022-07-31T12:13:24.435Z,98970.28
2022-07-31T12:15:58.001Z,98972.53
2022-07-31T12:18:27.157Z,98982.44
2022-07-31T12:20:59.828Z,98983.50
2022-07-31T12:23:38.523Z,98981.41
2022-07-31T12:26:10.301Z,98972.84
2022-07-31T12:28:38.353Z,98972.44
2022-07-31T12:31:06.932Z,98978.06
2022-07-31T12:33:42.425Z,98966.09
2022-07-31T12:36:16.696Z,98961.31
2022-07-31T12:38:48.420Z,98960.47
2022-07-31T12:41:18.235Z,98957.50
2022-07-31T12:43:51.663Z,98947.50
2022-07-31T12:46:22.940Z,98953.16
2022-07-31T12:48:53.004Z,98953.56
2022-07-31T12:51:45.668Z,98943.06
2022-07-31T12:54:11.272Z,98934.50
2022-07-31T12:56:41.111Z,98932.38
2022-07-31T12:59:10.198Z,98934.13
2022-07-31T13:01:38.756Z,98929.59
2022-07-31T13:04:18.356Z,98928.38
2022-07-31T13:06:52.309Z,98936.53
2022-07-31T13:09:21.653Z,98920.09
2022-07-31T13:11:54.498Z,98919.13
2022-07-31T13:14:25.684Z,98915.31
2022-07-31T13:16:55.777Z,98914.50
2022-07-31T13:19:24.274Z,98915.38
2022-07-31T13:21:56.628Z,98920.63
2022-07-31T13:24:25.328Z,98926.38
2022-07-31T13:26:53.850Z,98922.03
2022-07-31T13:29:22.275Z,98920.22
2022-07-31T13:31:50.638Z,98902.25
2022-07-31T13:34:18.969Z,98910.19
2022-07-31T13:36:47.164Z,98896.06
2022-07-31T13:39:17.052Z,98901.88
2022-07-31T13:41:45.092Z,98905.22
2022-07-31T13:44:13.290Z,98908.25
2022-07-31T13:46:41.615Z,98902.06
2022-07-31T13:49:10.814Z,98901.63
2022-07-31T13:51:39.717Z,98893.06
2022-07-31T13:54:08.875Z,98897.19
2022-07-31T13:56:43.324Z,98899.47
2022-07-31T13:59:13.620Z,98898.41
2022-07-31T14:02:03.780Z,98900.75
2022-07-31T14:04:38.404Z,98900.28
2022-07-31T14:07:08.526Z,98899.22
2022-07-31T14:09:37.826Z,98900.38
2022-07-31T14:12:08.891Z,98900.34
2022-07-31T14:14:37.857Z,98900.25
2022-07-31T14:17:06.295Z,98892.56
2022-07-31T14:19:40.611Z,98889.84
2022-07-31T14:22:13.039Z,98888.56
2022-07-31T14:24:41.791Z,98894.84
2022-07-31T14:27:21.146Z,98889.69
2022-07-31T14:29:51.584Z,98887.56
2022-07-31T14:32:22.248Z,98878.53
2022-07-31T14:34:51.114Z,98874.66
2022-07-31T14:37:20.754Z,98875.03
2022-07-31T14:39:49.233Z,98876.56
2022-07-31T14:42:22.393Z,98880.28
2022-07-31T14:44:57.244Z,98873.31
2022-07-31T14:47:25.972Z,98876.81
2022-07-31T14:50:09.895Z,98873.16
2022-07-31T14:52:39.195Z,98875.00
2022-07-31T14:55:08.531Z,98874.59
2022-07-31T14:57:36.554Z,98871.50
2022-07-31T15:00:13.115Z,98866.63
2022-07-31T15:02:45.462Z,98853.72
2022-07-31T15:06:48.657Z,98862.13
2022-07-31T15:08:03.909Z,98859.88
2022-07-31T15:10:32.527Z,98862.19
2022-07-31T15:13:00.646Z,98856.88
2022-07-31T15:15:31.873Z,98852.31
2022-07-31T15:18:02.444Z,98856.91
2022-07-31T15:20:32.990Z,98861.44
2022-07-31T15:23:01.578Z,98852.50
2022-07-31T15:25:29.778Z,98858.03
2022-07-31T15:27:57.857Z,98837.84
2022-07-31T15:30:26.078Z,98852.47
2022-07-31T15:32:55.685Z,98844.41
2022-07-31T15:35:23.874Z,98848.59
2022-07-31T15:37:51.916Z,98853.56
2022-07-31T15:40:20.138Z,98843.88
2022-07-31T15:42:49.201Z,98844.56
2022-07-31T15:45:19.227Z,98837.84
2022-07-31T15:47:48.240Z,98831.78
2022-07-31T15:50:20.380Z,98841.50
2022-07-31T15:52:49.339Z,98833.75
2022-07-31T15:55:18.487Z,98831.06
2022-07-31T15:57:46.961Z,98828.81
2022-07-31T16:00:15.925Z,98820.91
2022-07-31T16:02:45.550Z,98818.78
2022-07-31T16:05:35.812Z,98819.13
2022-07-31T16:08:32.331Z,98817.88
2022-07-31T16:10:54.635Z,98818.47
2022-07-31T16:13:23.877Z,98817.72
2022-07-31T16:15:52.692Z,98810.16
2022-07-31T16:18:20.904Z,98812.31
2022-07-31T16:20:49.262Z,98810.16
2022-07-31T16:23:18.816Z,98808.78
2022-07-31T16:25:46.963Z,98802.13
2022-07-31T16:28:15.186Z,98803.94
2022-07-31T16:30:45.770Z,98796.22
2022-07-31T16:33:14.275Z,98800.91
2022-07-31T16:35:42.512Z,98792.41
2022-07-31T16:38:10.899Z,98799.91
2022-07-31T16:40:40.690Z,98795.91
2022-07-31T16:43:48.180Z,98793.38
2022-07-31T16:45:57.976Z,98794.75
2022-07-31T16:48:26.399Z,98779.53
2022-07-31T16:50:55.122Z,98777.50
2022-07-31T16:54:10.108Z,98781.06
2022-07-31T16:56:14.267Z,98784.59
2022-07-31T16:58:44.001Z,98783.34
2022-07-31T17:01:58.350Z,98788.78
2022-07-31T17:04:03.954Z,98776.88
2022-07-31T17:06:36.025Z,98779.84
2022-07-31T17:09:16.188Z,98774.63
2022-07-31T17:11:49.614Z,98773.00
2022-07-31T17:14:18.646Z,98776.78
2022-07-31T17:16:48.802Z,98775.97
2022-07-31T17:19:42.934Z,98768.59
2022-07-31T17:22:07.299Z,98772.66
2022-07-31T17:24:37.488Z,98771.56
2022-07-31T17:27:09.310Z,98766.09
2022-07-31T17:29:39.755Z,98776.47
2022-07-31T17:32:08.059Z,98774.22
2022-07-31T17:34:39.728Z,98775.00
2022-07-31T17:37:08.559Z,98775.53
2022-07-31T17:39:37.374Z,98781.94
2022-07-31T17:42:09.186Z,98791.81
2022-07-31T17:44:37.691Z,98786.34
2022-07-31T17:47:06.726Z,98788.38
2022-07-31T17:49:36.176Z,98791.38
2022-07-31T17:52:05.176Z,98792.09
2022-07-31T17:54:33.480Z,98791.41
2022-07-31T17:57:01.677Z,98789.53
2022-07-31T17:59:32.184Z,98782.41
2022-07-31T18:02:01.139Z,98790.25
2022-07-31T18:04:30.315Z,98793.00
2022-07-31T18:06:59.070Z,98788.97
2022-07-31T18:09:27.778Z,98798.53
2022-07-31T18:11:57.025Z,98793.22
2022-07-31T18:14:25.699Z,98796.59
2022-07-31T18:16:56.003Z,98800.47
2022-07-31T18:19:24.227Z,98798.31
2022-07-31T18:21:53.370Z,98797.66
2022-07-31T18:24:22.770Z,98792.06
2022-07-31T18:26:51.722Z,98803.22
2022-07-31T18:29:19.933Z,98801.09
2022-07-31T18:31:48.405Z,98804.63
2022-07-31T18:34:18.651Z,98806.00
2022-07-31T18:36:49.486Z,98798.53
2022-07-31T18:39:19.781Z,98804.03
2022-07-31T18:41:49.175Z,98813.63
2022-07-31T18:44:17.802Z,98816.16
2022-07-31T18:46:45.981Z,98817.22
2022-07-31T18:51:00.115Z,98820.41
2022-07-31T18:52:06.511Z,98825.69
2022-07-31T18:54:34.952Z,98835.31
2022-07-31T18:57:04.450Z,98832.69
2022-07-31T18:59:32.838Z,98826.59
2022-07-31T19:02:01.320Z,98823.28
2022-07-31T19:04:29.513Z,98838.56
2022-07-31T19:06:58.241Z,98827.88
2022-07-31T19:09:27.827Z,98837.91
2022-07-31T19:12:06.069Z,98839.81
2022-07-31T19:14:36.326Z,98843.50
2022-07-31T19:17:04.900Z,98835.78
2022-07-31T19:19:54.588Z,98842.03
2022-07-31T19:22:23.953Z,98845.78
2022-07-31T19:24:54.418Z,98850.81
2022-07-31T19:27:22.674Z,98850.53
2022-07-31T19:30:13.895Z,98847.59
2022-07-31T19:32:42.612Z,98852.84
2022-07-31T19:35:11.608Z,98848.81
2022-07-31T19:37:40.137Z,98854.06
2022-07-31T19:40:11.743Z,98861.16
2022-07-31T19:42:40.681Z,98854.47
2022-07-31T19:45:09.474Z,98863.00
2022-07-31T19:47:37.721Z,98867.69
2022-07-31T19:50:07.580Z,98864.50
2022-07-31T19:52:35.762Z,98865.75
2022-07-31T19:55:04.085Z,98867.84
2022-07-31T19:57:33.874Z,98872.09
2022-07-31T20:00:02.321Z,98866.84
2022-07-31T20:02:30.509Z,98866.19
2022-07-31T20:05:00.152Z,98862.13
2022-07-31T20:07:32.808Z,98866.25
2022-07-31T20:10:01.971Z,98864.94
2022-07-31T20:12:30.207Z,98868.75
2022-07-31T20:15:00.703Z,98871.25
2022-07-31T20:17:29.484Z,98877.78
2022-07-31T20:20:12.575Z,98881.50
2022-07-31T20:22:44.141Z,98878.25
2022-07-31T20:25:19.533Z,98888.25
2022-07-31T20:27:49.170Z,98886.19
2022-07-31T20:30:22.233Z,98889.50
2022-07-31T20:32:51.648Z,98883.09
2022-07-31T20:35:35.262Z,98888.44
2022-07-31T20:38:08.789Z,98891.75
2022-07-31T20:40:48.181Z,98888.53
2022-07-31T20:43:22.543Z,98892.97
2022-07-31T20:45:52.661Z,98890.56
2022-07-31T20:48:24.483Z,98889.50
2022-07-31T20:50:53.457Z,98894.72
2022-07-31T20:53:23.235Z,98892.50
2022-07-31T20:55:51.504Z,98900.53
2022-07-31T20:58:22.709Z,98905.94
2022-07-31T21:00:53.964Z,98902.25
2022-07-31T21:03:23.177Z,98903.84
2022-07-31T21:05:51.375Z,98901.63
2022-07-31T21:08:19.545Z,98903.81
2022-07-31T21:10:47.642Z,98908.28
2022-07-31T21:13:16.360Z,98903.34
2022-07-31T21:15:45.532Z,98909.75
2022-07-31T21:18:16.720Z,98910.97
2022-07-31T21:20:51.094Z,98903.06
2022-07-31T21:23:23.753Z,98899.03
2022-07-31T21:25:53.288Z,98896.34
2022-07-31T21:28:22.258Z,98898.66
2022-07-31T21:30:53.108Z,98900.66
2022-07-31T21:33:23.824Z,98908.19
2022-07-31T21:35:52.719Z,98905.13
2022-07-31T21:38:22.216Z,98907.72
2022-07-31T21:40:51.206Z,98904.72
2022-07-31T21:43:22.606Z,98909.69
2022-07-31T21:45:57.311Z,98906.88
2022-07-31T21:48:33.513Z,98913.41
2022-07-31T21:51:02.239Z,98910.41
2022-07-31T21:53:30.589Z,98914.59
2022-07-31T21:56:02.222Z,98919.94
2022-07-31T21:58:30.472Z,98924.38
2022-07-31T22:00:58.927Z,98918.41
2022-07-31T22:03:27.213Z,98925.16
2022-07-31T22:06:14.327Z,98934.16
2022-07-31T22:08:42.611Z,98931.00
2022-07-31T22:11:10.865Z,98933.53
2022-07-31T22:13:39.594Z,98939.13
2022-07-31T22:16:08.070Z,98943.69
2022-07-31T22:18:37.142Z,98946.00
2022-07-31T22:21:09.212Z,98941.81
2022-07-31T22:23:38.062Z,98945.34
2022-07-31T22:26:06.576Z,98949.16
2022-07-31T22:28:35.380Z,98955.50
2022-07-31T22:31:04.327Z,98957.09
2022-07-31T22:33:32.949Z,98958.81
2022-07-31T22:36:02.854Z,98957.34
2022-07-31T22:38:32.839Z,98960.03
2022-07-31T22:41:01.961Z,98958.38
2022-07-31T22:44:11.457Z,98959.72
2022-07-31T22:46:18.543Z,98964.69
2022-07-31T22:48:47.280Z,98965.72
2022-07-31T22:51:15.886Z,98963.84
2022-07-31T22:53:48.714Z,98966.56
2022-07-31T22:56:17.964Z,98966.94
2022-07-31T22:58:46.156Z,98966.94
2022-07-31T23:01:14.290Z,98972.88
2022-07-31T23:03:42.455Z,98976.00
2022-07-31T23:06:30.868Z,98973.28
2022-07-31T23:09:00.513Z,98987.81
2022-07-31T23:11:28.681Z,98977.44
2022-07-31T23:13:57.088Z,98983.00
2022-07-31T23:16:25.447Z,98983.34
2022-07-31T23:18:53.668Z,98986.59
2022-07-31T23:21:21.720Z,98985.81
2022-07-31T23:23:50.214Z,98992.22
2022-07-31T23:26:21.169Z,98992.50
2022-07-31T23:28:49.932Z,98989.38
2022-07-31T23:31:18.422Z,98986.72
2022-07-31T23:33:48.085Z,98983.72
2022-07-31T23:36:17.275Z,98976.25
2022-07-31T23:38:46.050Z,98983.50
2022-07-31T23:41:14.854Z,98981.84
2022-07-31T23:43:54.338Z,98983.50
2022-07-31T23:46:26.871Z,98988.09
2022-07-31T23:48:56.082Z,98983.53
2022-07-31T23:51:24.596Z,98984.94
2022-07-31T23:53:52.838Z,98977.31
2022-07-31T23:56:21.008Z,98974.53
2022-07-31T23:58:50.708Z,98966.09
